Weather History for KSEP - February, 2014

Change the Weather History Date:

Wednesday, February 5, 2014

  Actual Average Record
Temperature  
Mean Temperature 28 °F -  
Max Temperature 36 °F 51 °F 85 °F (1925)
Min Temperature 19 °F 32 °F 13 °F (1989)
Degree Days  
Heating Degree Days 38    
Moisture  
Dew Point 18 °F    
Average Humidity 68    
Maximum Humidity 84    
Minimum Humidity 57    
Precipitation  
Precipitation 0.00 in - - ()
Sea Level Pressure  
Sea Level Pressure 30.41 in    
Wind  
Wind Speed 14 mph (North)    
Max Wind Speed 24 mph    
Max Gust Speed 31 mph    
Visibility 10 miles    
Events      
Averages and records for this station are not official NWS values.
T = Trace of Precipitation, MM = Missing Value Source: NWS Daily Summary

Daily Weather History Graph

Daily Weather History Graph

Search for Another Location

Airport or City:

Trip Planner

Search our weather history database for the weather conditions in past years. The results will help you decide how hot, cold, wet, or windy it might be!

Date:

Astronomy

Feb. 05, 2014 Rise Set
Actual Time 7:23 AM CST 6:10 PM CST
Civil Twilight 6:58 AM CST 6:35 PM CST
Nautical Twilight 6:29 AM CST 7:04 PM CST
Astronomical Twilight 6:00 AM CST 7:33 PM CST
Moon 11:04 AM CST No Moon Set
Length of Visible Light 11h 37m
Length of Day
10h 46m
Waxing Crescent, 39% of the Moon is Illuminated
Feb 5
Waxing Crescent
Feb 6
First Quarter
Feb 14
Full
Feb 22
Last Quarter
Mar 1
New

Hourly Weather History & Observations

Time (CST) Temp. Windchill Dew Point Humidity Pressure Visibility Wind Dir Wind Speed Gust Speed Precip Events Conditions
12:15 AM 36.7 °F 29.4 °F 31.8 °F 83% 30.15 in 10.0 mi NNW 10.4 mph 16.1 mph N/A   Clear
12:35 AM 36.7 °F 28.9 °F 31.8 °F 83% 30.16 in 10.0 mi NNW 11.5 mph 17.3 mph N/A   Clear
12:55 AM 36.3 °F 28.0 °F 32.0 °F 84% 30.17 in 10.0 mi NNW 12.7 mph 18.4 mph N/A   Scattered Clouds
1:15 AM 36.3 °F 26.8 °F 31.8 °F 84% 30.19 in 10.0 mi NNW 16.1 mph - N/A   Overcast
1:35 AM 35.4 °F 27.8 °F 30.9 °F 84% 30.20 in 10.0 mi NNW 10.4 mph 18.4 mph N/A   Mostly Cloudy
1:55 AM 34.2 °F 24.0 °F 29.1 °F 82% 30.21 in 10.0 mi NNW 16.1 mph - N/A   Scattered Clouds
2:15 AM 33.8 °F 23.5 °F 28.9 °F 82% 30.22 in 10.0 mi NNW 16.1 mph 20.7 mph N/A   Mostly Cloudy
2:35 AM 32.9 °F 22.8 °F 25.9 °F 75% 30.24 in 10.0 mi North 15.0 mph 26.5 mph N/A   Scattered Clouds
2:55 AM 32.0 °F 20.5 °F 25.5 °F 77% 30.25 in 10.0 mi North 18.4 mph 23.0 mph N/A   Clear
3:15 AM 32.0 °F 20.8 °F 25.3 °F 76% 30.26 in 10.0 mi North 17.3 mph 25.3 mph N/A   Clear
3:35 AM 32.0 °F 23.6 °F 25.7 °F 78% 30.27 in 10.0 mi North 10.4 mph - N/A   Mostly Cloudy
3:55 AM 32.0 °F 24.2 °F 25.9 °F 78% 30.28 in 10.0 mi North 9.2 mph 17.3 mph N/A   Overcast
4:15 AM 32.0 °F 21.6 °F 25.7 °F 78% 30.29 in 10.0 mi North 15.0 mph 19.6 mph N/A   Overcast
4:35 AM 32.0 °F 19.8 °F 25.7 °F 78% 30.29 in 10.0 mi NNW 20.7 mph 24.2 mph N/A   Overcast
4:55 AM 32.0 °F 20.1 °F 25.2 °F 76% 30.31 in 10.0 mi North 19.6 mph 23.0 mph N/A   Overcast
5:15 AM 30.9 °F 19.4 °F 23.7 °F 75% 30.31 in 10.0 mi North 17.3 mph 25.3 mph N/A   Overcast
5:35 AM 30.6 °F 19.0 °F 23.5 °F 75% 30.32 in 10.0 mi North 17.3 mph 25.3 mph N/A   Overcast
5:55 AM 30.0 °F 17.5 °F 22.8 °F 75% 30.33 in 10.0 mi North 19.6 mph 26.5 mph N/A   Overcast
6:15 AM 29.5 °F 15.5 °F 22.6 °F 76% 30.33 in 10.0 mi North 24.2 mph 29.9 mph N/A   Overcast
6:35 AM 28.4 °F 16.2 °F 21.2 °F 74% 30.36 in 10.0 mi North 17.3 mph 25.3 mph N/A   Overcast
6:55 AM 27.7 °F 16.1 °F 20.3 °F 74% 30.38 in 10.0 mi North 15.0 mph 24.2 mph N/A   Overcast
7:15 AM 26.8 °F 12.9 °F 19.2 °F 73% 30.39 in 10.0 mi North 20.7 mph 31.1 mph N/A   Overcast
7:35 AM 26.1 °F 12.0 °F 18.9 °F 74% 30.40 in 10.0 mi North 20.7 mph 28.8 mph N/A   Overcast
7:55 AM 25.5 °F 12.9 °F 18.1 °F 74% 30.41 in 10.0 mi North 16.1 mph 25.3 mph N/A   Overcast
8:15 AM 25.9 °F 13.3 °F 18.5 °F 74% 30.43 in 10.0 mi North 16.1 mph 23.0 mph N/A   Overcast
8:35 AM 26.2 °F 13.8 °F 18.7 °F 73% 30.44 in 10.0 mi North 16.1 mph 21.9 mph N/A   Overcast
8:55 AM 26.1 °F 12.7 °F 17.8 °F 71% 30.47 in 10.0 mi North 18.4 mph 23.0 mph N/A   Scattered Clouds
9:15 AM 26.6 °F 17.5 °F 18.5 °F 71% 30.48 in 10.0 mi North 9.2 mph - N/A   Clear
9:35 AM 25.5 °F 13.3 °F 16.7 °F 69% 30.51 in 10.0 mi NNW 15.0 mph 20.7 mph N/A   Mostly Cloudy
9:55 AM 25.9 °F 12.1 °F 16.5 °F 68% 30.50 in 10.0 mi NNW 19.6 mph 23.0 mph N/A   Scattered Clouds
10:35 AM 26.8 °F 14.1 °F 16.2 °F 64% 30.52 in 10.0 mi NNW 17.3 mph 24.2 mph N/A   Clear
10:55 AM 26.2 °F 13.8 °F 14.9 °F 62% 30.53 in 10.0 mi North 16.1 mph 23.0 mph N/A   Clear
11:15 AM 26.8 °F 14.5 °F 14.9 °F 61% 30.53 in 10.0 mi NNW 16.1 mph - N/A   Clear
11:35 AM 27.0 °F 15.2 °F 14.7 °F 60% 30.53 in 10.0 mi NNW 15.0 mph 23.0 mph N/A   Clear
11:55 AM 26.6 °F 15.2 °F 14.4 °F 60% 30.52 in 10.0 mi NNW 13.8 mph 21.9 mph N/A   Clear
12:15 PM 27.0 °F 15.2 °F 14.9 °F 60% 30.51 in 10.0 mi NNW 15.0 mph 21.9 mph N/A   Clear
12:35 PM 27.0 °F 14.3 °F 14.7 °F 60% 30.51 in 10.0 mi North 17.3 mph 23.0 mph N/A   Clear
12:55 PM 27.1 °F 15.4 °F 14.2 °F 58% 30.50 in 10.0 mi North 15.0 mph 23.0 mph N/A   Clear
1:15 PM 27.7 °F 15.6 °F 14.7 °F 58% 30.48 in 10.0 mi North 16.1 mph 19.6 mph N/A   Clear
1:35 PM 28.0 °F 15.7 °F 14.5 °F 57% 30.48 in 10.0 mi North 17.3 mph 25.3 mph N/A   Clear
1:55 PM 27.5 °F 15.9 °F 14.5 °F 58% 30.47 in 10.0 mi North 15.0 mph 20.7 mph N/A   Clear
2:15 PM 27.5 °F 18.0 °F 14.7 °F 59% 30.47 in 10.0 mi North 10.4 mph 19.6 mph N/A   Clear
2:35 PM 27.9 °F 15.5 °F 14.4 °F 57% 30.47 in 10.0 mi North 17.3 mph - N/A   Clear
2:55 PM 28.2 °F 17.7 °F 14.7 °F 57% 30.46 in 10.0 mi North 12.7 mph 20.7 mph N/A   Clear
3:15 PM 27.5 °F 15.4 °F 14.2 °F 57% 30.45 in 10.0 mi North 16.1 mph 21.9 mph N/A   Clear
3:35 PM 27.5 °F 15.4 °F 14.4 °F 58% 30.45 in 10.0 mi North 16.1 mph 24.2 mph N/A   Clear
3:55 PM 27.5 °F 16.8 °F 14.2 °F 57% 30.44 in 10.0 mi North 12.7 mph - N/A   Clear
4:15 PM 27.3 °F 15.2 °F 14.4 °F 58% 30.43 in 10.0 mi North 16.1 mph 23.0 mph N/A   Clear
4:35 PM 27.0 °F 16.1 °F 14.5 °F 60% 30.45 in 10.0 mi North 12.7 mph 17.3 mph N/A   Clear
4:55 PM 26.6 °F 14.3 °F 14.5 °F 60% 30.44 in 10.0 mi North 16.1 mph - N/A   Clear
5:15 PM 26.2 °F 14.7 °F 14.2 °F 60% 30.46 in 10.0 mi North 13.8 mph 19.6 mph N/A   Clear
5:35 PM 26.1 °F 14.5 °F 14.2 °F 61% 30.45 in 10.0 mi North 13.8 mph 23.0 mph N/A   Clear
5:55 PM 25.7 °F 13.5 °F 14.4 °F 62% 30.45 in 10.0 mi North 15.0 mph 19.6 mph N/A   Clear
6:15 PM 25.5 °F 13.8 °F 14.5 °F 63% 30.46 in 10.0 mi North 13.8 mph 21.9 mph N/A   Clear
6:35 PM 25.3 °F 13.6 °F 14.4 °F 63% 30.46 in 10.0 mi North 13.8 mph - N/A   Clear
6:55 PM 25.2 °F 13.9 °F 14.2 °F 63% 30.46 in 10.0 mi North 12.7 mph 20.7 mph N/A   Clear
7:15 PM 24.8 °F 14.0 °F 14.0 °F 64% 30.45 in 10.0 mi NNE 11.5 mph 19.6 mph N/A   Clear
7:35 PM 24.4 °F 11.9 °F 14.0 °F 65% 30.47 in 10.0 mi North 15.0 mph - N/A   Clear
7:55 PM 23.9 °F 12.9 °F 13.8 °F 65% 30.48 in 10.0 mi North 11.5 mph - N/A   Clear
8:15 PM 23.7 °F 11.5 °F 13.8 °F 66% 30.47 in 10.0 mi North 13.8 mph 21.9 mph N/A   Clear
8:35 PM 23.4 °F 11.1 °F 13.5 °F 66% 30.48 in 10.0 mi North 13.8 mph 20.7 mph N/A   Clear
8:55 PM 23.0 °F 11.7 °F 13.1 °F 66% 30.48 in 10.0 mi North 11.5 mph 19.6 mph N/A   Clear
9:15 PM 23.0 °F 11.1 °F 13.1 °F 66% 30.48 in 10.0 mi North 12.7 mph 19.6 mph N/A   Clear
9:35 PM 23.0 °F 13.1 °F 13.3 °F 66% 30.48 in 10.0 mi North 9.2 mph - N/A   Clear
9:55 PM 22.8 °F 10.4 °F 13.1 °F 66% 30.49 in 10.0 mi North 13.8 mph 20.7 mph N/A   Clear
10:15 PM 22.1 °F 10.6 °F 13.1 °F 68% 30.50 in 10.0 mi North 11.5 mph 19.6 mph N/A   Clear
10:35 PM 21.6 °F 9.3 °F 12.7 °F 69% 30.50 in 10.0 mi North 12.7 mph - N/A   Scattered Clouds
10:55 PM 20.8 °F 8.4 °F 12.4 °F 70% 30.50 in 10.0 mi North 12.7 mph 19.6 mph N/A   Clear
11:15 PM 20.3 °F 8.3 °F 12.2 °F 71% 30.51 in 10.0 mi North 11.5 mph - N/A   Mostly Cloudy
11:35 PM 19.9 °F 7.3 °F 11.8 °F 71% 30.51 in 10.0 mi North 12.7 mph 19.6 mph N/A   Overcast
11:55 PM 19.4 °F 6.6 °F 11.5 °F 71% 30.51 in 10.0 mi North 12.7 mph 17.3 mph N/A   Overcast